TAFOR
Diposting tanggal: 10 Juni 2019

Pukul :

Isi :

TAF WAGI 292300Z 3000/3012 10005KT 8000 FEW012 BECMG 3004/3006 BKN012=